Time;durP1;ratioP1;P1;durP2;ratioP2;P2;SDS_P1;SDS_P2;PMS_P1;PMS_P2;Temp;Humidity;BMP_temperature;BMP_pressure;BME280_temperature;BME280_humidity;BME280_pressure;Samples;Min_cycle;Max_cycle;Signal;HPM_P1;HPM_P2
2021/06/02 00:02:21;;;;;;;5.37;3.33;;;;;;;7.80;88.95;97889.28;1737382;82;21012;-78
2021/06/02 00:04:53;;;;;;;8.68;3.98;;;;;;;7.91;89.09;97893.03;1743069;82;21508;-77
2021/06/02 00:07:25;;;;;;;6.30;3.70;;;;;;;8.01;88.91;97892.41;1727673;82;20974;-78
2021/06/02 00:09:54;;;;;;;5.53;3.52;;;;;;;8.11;88.89;97895.70;1728450;82;21451;-78
2021/06/02 00:12:22;;;;;;;7.00;3.72;;;;;;;8.16;88.54;97889.87;1737216;82;20984;-78
2021/06/02 00:14:49;;;;;;;7.00;3.70;;;;;;;8.15;88.45;97884.19;1722241;82;20989;-78
2021/06/02 00:17:17;;;;;;;9.35;4.10;;;;;;;8.14;88.21;97888.58;1743067;82;20996;-79
2021/06/02 00:19:43;;;;;;;7.20;4.25;;;;;;;8.07;88.63;97889.63;1742996;82;20933;-78
2021/06/02 00:22:10;;;;;;;7.95;3.83;;;;;;;8.00;88.62;97894.60;1736028;82;21016;-78
2021/06/02 00:24:38;;;;;;;5.30;3.62;;;;;;;7.96;88.14;97892.92;1729111;82;21024;-78
2021/06/02 00:27:11;;;;;;;5.58;3.45;;;;;;;7.87;89.22;97896.19;1734391;82;21038;-78
2021/06/02 00:29:41;;;;;;;8.85;4.92;;;;;;;7.78;88.96;97895.91;1714072;84;21061;-78
2021/06/02 00:32:09;;;;;;;10.15;5.28;;;;;;;7.71;88.61;97898.69;1746669;82;21044;-79
2021/06/02 00:34:37;;;;;;;7.58;4.78;;;;;;;7.63;88.90;97901.48;1751429;82;21394;-78
2021/06/02 00:37:08;;;;;;;6.33;4.03;;;;;;;7.52;89.02;97898.60;1751489;81;21028;-78
2021/06/02 00:39:35;;;;;;;4.97;3.83;;;;;;;7.45;90.14;97903.59;1734304;82;20996;-78
2021/06/02 00:42:03;;;;;;;5.67;3.45;;;;;;;7.42;88.52;97897.04;1749740;82;21422;-78
2021/06/02 00:44:29;;;;;;;7.33;3.17;;;;;;;7.36;88.45;97898.48;1751580;82;21411;-79
2021/06/02 00:46:58;;;;;;;8.08;3.15;;;;;;;7.33;89.11;97898.09;1751470;81;21064;-78
2021/06/02 00:49:27;;;;;;;4.05;3.17;;;;;;;7.25;89.99;97903.50;1751358;81;21529;-78
2021/06/02 00:52:07;;;;;;;6.50;3.00;;;;;;;7.21;88.75;97896.53;1751323;82;20989;-78
2021/06/02 00:54:37;;;;;;;5.78;3.17;;;;;;;7.12;89.53;97899.33;1737751;82;21443;-78
2021/06/02 00:57:12;;;;;;;4.30;3.25;;;;;;;7.04;90.43;97894.62;1741310;81;21435;-78
2021/06/02 01:00:00;;;;;;;5.12;3.77;;;;;;;6.98;90.04;97896.94;1737769;82;21013;-78
2021/06/02 01:02:28;;;;;;;6.08;3.55;;;;;;;6.94;90.11;97894.78;1721074;83;21024;-78
2021/06/02 01:04:54;;;;;;;5.60;2.87;;;;;;;6.92;89.20;97896.58;1721664;83;21040;-78
2021/06/02 01:07:22;;;;;;;4.40;2.98;;;;;;;6.94;89.72;97898.73;1721761;83;21411;-78
2021/06/02 01:09:52;;;;;;;5.00;3.70;;;;;;;6.95;89.95;97893.02;1723219;82;21415;-78
2021/06/02 01:12:23;;;;;;;6.20;2.70;;;;;;;6.99;89.83;97893.40;1742260;82;21041;-78
2021/06/02 01:14:51;;;;;;;5.22;2.62;;;;;;;6.99;89.47;97886.34;1750431;82;21428;-78
2021/06/02 01:17:22;;;;;;;3.40;2.50;;;;;;;7.02;89.75;97881.47;1749200;81;21415;-78
2021/06/02 01:19:49;;;;;;;5.83;2.70;;;;;;;7.07;90.03;97889.31;1748540;82;21407;-78
2021/06/02 01:22:17;;;;;;;3.10;2.50;;;;;;;7.12;89.65;97889.67;1751130;82;21499;-78
2021/06/02 01:24:44;;;;;;;4.08;2.20;;;;;;;7.15;89.49;97886.55;1751444;82;20978;-78
2021/06/02 01:27:12;;;;;;;3.30;2.62;;;;;;;7.16;89.64;97888.28;1741499;81;21156;-77
2021/06/02 01:29:47;;;;;;;4.45;2.37;;;;;;;7.09;89.83;97884.44;1734794;82;21013;-77
2021/06/02 01:32:39;;;;;;;3.62;2.37;;;;;;;7.08;89.84;97889.73;1746827;82;21392;-77
2021/06/02 01:35:40;;;;;;;3.65;2.90;;;;;;;6.99;90.32;97883.71;1743645;82;21092;-77
2021/06/02 01:38:55;;;;;;;4.97;2.70;;;;;;;6.94;90.56;97884.23;1743488;82;21092;-78
2021/06/02 01:41:59;;;;;;;6.17;2.47;;;;;;;6.88;90.61;97890.09;1741478;82;21065;-78
2021/06/02 01:45:09;;;;;;;3.77;2.20;;;;;;;6.87;90.11;97879.98;1735310;82;21069;-77
2021/06/02 01:48:04;;;;;;;2.95;2.12;;;;;;;6.81;89.85;97883.58;1713844;84;21084;-77
2021/06/02 01:50:59;;;;;;;4.87;2.90;;;;;;;6.78;89.17;97882.33;1720966;82;21420;-77
2021/06/02 01:53:49;;;;;;;4.37;2.87;;;;;;;6.76;88.99;97877.52;1743751;82;21019;-77
2021/06/02 01:56:42;;;;;;;3.95;2.45;;;;;;;6.71;88.73;97886.82;1743721;82;21465;-77
2021/06/02 01:59:34;;;;;;;5.00;2.65;;;;;;;6.68;88.54;97889.48;1726897;82;21411;-80
2021/06/02 02:02:38;;;;;;;5.30;2.70;;;;;;;6.65;88.95;97888.67;1738889;82;21076;-79
2021/06/02 02:05:39;;;;;;;4.35;2.62;;;;;;;6.59;89.62;97901.05;1713876;84;21033;-79
2021/06/02 02:08:32;;;;;;;5.87;2.90;;;;;;;6.56;88.99;97900.22;1713861;83;21101;-80
2021/06/02 02:11:13;;;;;;;4.50;2.52;;;;;;;6.47;89.63;97895.51;1742789;82;21013;-79
2021/06/02 02:14:06;;;;;;;6.37;2.33;;;;;;;6.42;88.84;97893.83;1738171;82;21037;-79
2021/06/02 02:17:14;;;;;;;3.77;2.40;;;;;;;6.37;90.80;97903.55;1739579;82;20982;-79
2021/06/02 02:20:14;;;;;;;13.22;2.85;;;;;;;6.32;89.76;97908.89;1731398;82;21052;-80
2021/06/02 02:23:34;;;;;;;6.03;2.37;;;;;;;6.27;89.05;97908.94;1743788;82;21470;-80
2021/06/02 02:26:24;;;;;;;2.35;2.08;;;;;;;6.26;89.30;97900.62;1743760;82;21043;-80
2021/06/02 02:29:28;;;;;;;4.30;2.70;;;;;;;6.25;88.81;97901.95;1743441;82;21478;-80
2021/06/02 02:32:17;;;;;;;3.37;2.10;;;;;;;6.21;89.84;97907.72;1731344;82;21029;-80
2021/06/02 02:35:22;;;;;;;6.15;2.67;;;;;;;6.16;89.95;97901.64;1734022;82;21064;-80
2021/06/02 02:38:30;;;;;;;3.05;2.47;;;;;;;6.13;89.25;97903.88;1713413;83;21029;-80
2021/06/02 02:41:05;;;;;;;5.72;2.83;;;;;;;6.12;90.88;97907.83;1732681;82;21064;-80
2021/06/02 02:44:14;;;;;;;5.25;2.95;;;;;;;6.11;89.63;97910.93;1742550;82;20969;-80
2021/06/02 02:47:13;;;;;;;3.55;2.47;;;;;;;6.10;89.79;97910.48;1728849;82;21065;-79
2021/06/02 02:50:14;;;;;;;3.83;2.85;;;;;;;6.07;90.48;97908.76;1736711;82;20985;-78
2021/06/02 02:53:21;;;;;;;6.00;2.90;;;;;;;6.07;91.54;97911.86;1743303;82;21036;-79
2021/06/02 02:55:56;;;;;;;4.03;2.70;;;;;;;6.10;90.92;97909.16;1743228;82;21013;-79
2021/06/02 02:58:40;;;;;;;5.00;2.58;;;;;;;6.18;90.25;97910.38;1742818;82;21018;-78
2021/06/02 03:01:27;;;;;;;2.80;2.47;;;;;;;6.24;90.54;97912.95;1743126;82;21483;-79
2021/06/02 03:04:20;;;;;;;3.40;2.42;;;;;;;6.33;90.35;97916.78;1743122;82;20993;-78
2021/06/02 03:06:59;;;;;;;5.37;2.40;;;;;;;6.46;89.96;97914.84;1735649;82;21033;-79
2021/06/02 03:09:52;;;;;;;2.83;2.00;;;;;;;6.60;89.73;97915.94;1736365;82;21032;-79
2021/06/02 03:12:36;;;;;;;4.42;2.05;;;;;;;6.73;89.74;97913.14;1743458;82;20974;-79
2021/06/02 03:15:23;;;;;;;4.20;2.30;;;;;;;6.78;89.14;97905.16;1743361;82;21499;-80
2021/06/02 03:17:58;;;;;;;4.33;2.40;;;;;;;6.90;89.18;97911.99;1712615;82;21001;-80
2021/06/02 03:20:33;;;;;;;4.35;2.47;;;;;;;6.99;88.81;97910.06;1742790;82;21064;-79
2021/06/02 03:23:18;;;;;;;;;;;;;;;7.08;88.98;97908.18;1746395;82;21391;-79
2021/06/02 03:26:11;;;;;;;7.35;3.72;;;;;;;7.15;88.80;97919.48;1742649;82;20122;-80
2021/06/02 03:29:05;;;;;;;6.75;3.02;;;;;;;7.25;88.68;97921.06;1743572;82;21048;-80
2021/06/02 03:32:10;;;;;;;3.83;2.65;;;;;;;7.30;87.73;97921.00;1742852;82;21084;-78
2021/06/02 03:35:01;;;;;;;6.53;3.02;;;;;;;7.32;86.72;97930.63;1739140;82;21443;-77
2021/06/02 03:37:36;;;;;;;4.80;3.33;;;;;;;7.36;86.99;97924.38;1743208;82;21053;-79
2021/06/02 03:40:23;;;;;;;6.05;2.83;;;;;;;7.39;86.66;97932.68;1737887;82;21053;-79
2021/06/02 03:43:14;;;;;;;5.70;2.58;;;;;;;7.43;86.66;97933.52;1743671;82;21459;-79
2021/06/02 03:46:03;;;;;;;5.78;2.80;;;;;;;7.42;86.30;97935.27;1743593;82;21029;-80
2021/06/02 03:49:02;;;;;;;6.30;2.62;;;;;;;7.46;86.73;97939.59;1725292;81;21041;-79
2021/06/02 03:51:36;;;;;;;3.50;2.70;;;;;;;7.56;86.43;97938.97;1737137;82;21040;-78
2021/06/02 03:54:23;;;;;;;4.60;2.33;;;;;;;7.63;86.33;97941.05;1743404;82;21465;-78
2021/06/02 03:57:00;;;;;;;4.95;3.10;;;;;;;7.69;86.07;97948.88;1727208;82;21026;-79
2021/06/02 04:00:13;;;;;;;9.35;3.22;;;;;;;7.67;85.32;97951.97;1743400;82;21045;-79
2021/06/02 04:03:09;;;;;;;3.35;2.60;;;;;;;7.68;85.21;97947.11;1693753;84;21078;-78
2021/06/02 04:05:49;;;;;;;4.85;2.70;;;;;;;7.65;85.30;97949.34;1713610;83;21046;-79
2021/06/02 04:08:42;;;;;;;4.53;2.52;;;;;;;7.61;85.06;97956.93;1713749;84;21042;-79
2021/06/02 04:11:20;;;;;;;3.30;2.58;;;;;;;7.53;85.24;97950.91;1725355;82;21407;-79
2021/06/02 04:13:57;;;;;;;5.67;3.20;;;;;;;7.49;85.20;97947.47;1743768;82;21061;-79
2021/06/02 04:16:36;;;;;;;6.53;2.85;;;;;;;7.48;85.76;97959.36;1743799;82;20953;-79
2021/06/02 04:19:15;;;;;;;4.65;2.98;;;;;;;7.50;86.17;97953.16;1743704;82;21016;-79
2021/06/02 04:21:45;;;;;;;5.78;2.72;;;;;;;7.58;85.47;97958.73;1743471;82;20973;-79
2021/06/02 04:24:15;;;;;;;4.20;2.55;;;;;;;7.65;85.50;97958.58;1743325;82;21040;-79
2021/06/02 04:26:43;;;;;;;3.33;2.60;;;;;;;7.72;85.25;97963.30;1743239;82;21399;-79
2021/06/02 04:29:13;;;;;;;7.70;2.87;;;;;;;7.69;85.46;97965.13;1743324;82;21453;-78
2021/06/02 04:31:59;;;;;;;18.75;12.65;;;;;;;7.77;85.17;97958.81;1743652;82;21009;-79
2021/06/02 04:34:28;;;;;;;10.08;6.45;;;;;;;7.85;84.87;97961.30;1741381;82;21455;-79
2021/06/02 04:36:58;;;;;;;11.85;3.85;;;;;;;7.95;84.73;97962.44;1713749;84;21048;-79
2021/06/02 04:39:28;;;;;;;6.12;2.90;;;;;;;8.02;84.43;97960.97;1713279;83;21120;-80
2021/06/02 04:41:57;;;;;;;4.75;2.80;;;;;;;8.15;84.56;97956.78;1741113;82;21001;-79
2021/06/02 04:44:28;;;;;;;5.30;2.70;;;;;;;8.27;84.14;97956.98;1743388;82;21472;-80
2021/06/02 04:46:55;;;;;;;3.72;2.83;;;;;;;8.39;84.17;97961.13;1743305;82;21056;-79
2021/06/02 04:49:33;;;;;;;3.05;2.30;;;;;;;8.57;83.38;97963.86;1743303;82;21550;-79
2021/06/02 04:52:33;;;;;;;4.22;2.08;;;;;;;8.69;83.62;97966.20;1741865;82;21025;-79
2021/06/02 04:55:20;;;;;;;6.05;2.92;;;;;;;8.77;83.28;97961.22;1743891;82;21001;-79
2021/06/02 04:58:26;;;;;;;8.10;2.35;;;;;;;8.83;82.89;97967.23;1743932;82;21013;-79
2021/06/02 05:01:07;;;;;;;6.05;2.90;;;;;;;8.82;82.86;97959.34;1743722;82;20965;-78
2021/06/02 05:04:30;;;;;;;4.20;2.67;;;;;;;8.90;83.33;97968.41;1743800;82;21005;-78
2021/06/02 05:07:14;;;;;;;8.05;2.50;;;;;;;8.92;82.35;97967.91;1742823;82;20942;-78
2021/06/02 05:10:12;;;;;;;3.72;2.50;;;;;;;8.97;82.19;97970.02;1727512;82;21001;-79
2021/06/02 05:13:34;;;;;;;5.10;2.52;;;;;;;9.03;83.06;97981.77;1739178;82;21392;-80
2021/06/02 05:16:26;;;;;;;5.95;2.60;;;;;;;9.04;81.94;97982.17;1737268;82;21017;-79
2021/06/02 05:19:49;;;;;;;5.67;2.77;;;;;;;9.13;82.49;97983.72;1743763;82;20997;-79
2021/06/02 05:22:56;;;;;;;9.08;3.72;;;;;;;9.17;81.65;97989.83;1743360;82;21403;-78
2021/06/02 05:26:18;;;;;;;9.08;3.37;;;;;;;9.12;81.33;97989.92;1739320;82;21008;-79
2021/06/02 05:29:26;;;;;;;6.20;3.17;;;;;;;9.09;81.12;97987.34;1743237;82;21475;-79
2021/06/02 05:32:30;;;;;;;4.22;3.20;;;;;;;9.05;81.40;97983.05;1743279;82;21004;-78
2021/06/02 05:35:16;;;;;;;5.87;3.70;;;;;;;9.04;81.06;97992.75;1736689;82;21002;-79
2021/06/02 05:38:19;;;;;;;5.10;2.55;;;;;;;9.03;80.92;97979.56;1712258;83;21057;-79
2021/06/02 05:41:06;;;;;;;4.78;3.05;;;;;;;9.05;81.47;97981.73;1713128;84;21057;-79
2021/06/02 05:44:13;;;;;;;9.38;3.20;;;;;;;9.10;81.70;97984.66;1713053;84;21053;-79
2021/06/02 05:47:10;;;;;;;5.72;3.52;;;;;;;9.20;81.34;97986.65;1716631;82;21443;-83
2021/06/02 05:50:02;;;;;;;5.45;3.50;;;;;;;9.30;81.08;97981.98;1740317;82;21085;-83
2021/06/02 05:53:23;;;;;;;5.87;3.10;;;;;;;9.43;80.61;97979.91;1738684;82;21398;-81
2021/06/02 05:56:25;;;;;;;4.30;3.00;;;;;;;9.54;80.37;97978.31;1731771;82;21042;-82
2021/06/02 05:59:15;;;;;;;7.03;3.40;;;;;;;9.65;80.23;97971.43;1716964;82;21009;-82
2021/06/02 06:02:20;;;;;;;5.08;3.00;;;;;;;9.76;79.47;97983.06;1718803;82;21027;-83
2021/06/02 06:05:16;;;;;;;7.05;3.87;;;;;;;9.87;79.53;97981.44;1694297;83;21044;-84
2021/06/02 06:08:11;;;;;;;10.95;3.55;;;;;;;9.98;79.04;97983.80;1737403;82;21098;-85
2021/06/02 06:10:56;;;;;;;6.20;3.12;;;;;;;10.06;78.74;97987.11;1737930;82;21007;-83
2021/06/02 06:14:06;;;;;;;6.30;4.30;;;;;;;10.21;79.18;97987.59;1644746;84;21037;-85
2021/06/02 06:17:27;;;;;;;6.47;4.05;;;;;;;10.32;77.22;97984.17;1713002;83;21013;-89
2021/06/02 06:20:27;;;;;;;7.42;3.37;;;;;;;10.47;77.47;97991.30;1713049;84;21064;-86
2021/06/02 06:23:30;;;;;;;8.28;3.72;;;;;;;10.59;76.80;97984.77;1705286;82;20930;-87
2021/06/02 06:26:15;;;;;;;4.33;3.33;;;;;;;10.74;77.47;97975.47;1742888;82;21032;-83
2021/06/02 06:28:59;;;;;;;4.90;3.52;;;;;;;10.91;76.55;97973.63;1738080;82;21017;-84
2021/06/02 06:31:31;;;;;;;7.45;3.10;;;;;;;11.06;76.93;97977.59;1739615;82;21017;-85
2021/06/02 06:34:05;;;;;;;4.22;3.10;;;;;;;11.26;76.30;97972.10;1734094;82;20978;-87
2021/06/02 06:36:34;;;;;;;6.03;3.27;;;;;;;11.41;75.65;97968.94;1719170;82;21081;-83
2021/06/02 06:39:15;;;;;;;4.78;3.10;;;;;;;11.52;74.54;97970.36;1739660;82;21472;-83
2021/06/02 06:41:43;;;;;;;4.20;2.90;;;;;;;11.65;75.14;97969.48;1737543;82;21092;-83
2021/06/02 06:44:14;;;;;;;6.47;3.12;;;;;;;11.81;74.99;97961.41;1739584;82;21384;-82
2021/06/02 06:46:45;;;;;;;6.08;3.08;;;;;;;11.99;74.70;97966.52;1721725;82;21052;-83
2021/06/02 06:49:14;;;;;;;7.15;2.90;;;;;;;12.16;74.13;97966.87;1722515;82;21013;-82
2021/06/02 06:51:52;;;;;;;6.55;3.00;;;;;;;12.24;71.33;97958.13;1738596;82;21025;-83
2021/06/02 06:54:14;;;;;;;4.12;2.45;;;;;;;12.37;73.38;97959.90;1713136;83;20978;-84
2021/06/02 06:56:43;;;;;;;4.40;2.80;;;;;;;12.51;72.36;97946.92;1734044;82;21056;-85
2021/06/02 06:59:11;;;;;;;6.42;2.95;;;;;;;12.63;70.78;97964.20;1742764;82;21311;-85
2021/06/02 07:01:38;;;;;;;4.42;2.90;;;;;;;12.76;71.25;97959.75;1721435;82;21471;-83
2021/06/02 07:04:07;;;;;;;2.52;2.00;;;;;;;12.90;72.41;97960.07;1738562;82;21029;-81
2021/06/02 07:06:37;;;;;;;4.22;2.30;;;;;;;12.98;70.54;97954.89;1740062;82;20974;-83
2021/06/02 07:09:07;;;;;;;5.78;2.98;;;;;;;13.09;71.06;97948.70;1742594;82;21582;-82
2021/06/02 07:11:44;;;;;;;5.10;2.80;;;;;;;13.23;69.93;97952.56;1742447;82;20997;-83
2021/06/02 07:14:10;;;;;;;2.80;2.00;;;;;;;13.34;67.54;97949.86;1721940;82;21136;-81
2021/06/02 07:16:39;;;;;;;3.60;2.10;;;;;;;13.42;65.49;97948.20;1738871;82;21061;-84
2021/06/02 07:19:08;;;;;;;2.55;1.77;;;;;;;13.61;68.08;97947.95;1742690;82;21048;-83
2021/06/02 07:21:41;;;;;;;4.42;2.33;;;;;;;13.78;67.18;97949.41;1721568;82;21543;-82
2021/06/02 07:24:09;;;;;;;3.00;1.80;;;;;;;13.96;66.09;97950.39;1735757;82;21037;-84
2021/06/02 07:26:39;;;;;;;4.58;1.92;;;;;;;14.09;62.47;97947.20;1741347;82;21016;-84
2021/06/02 07:29:09;;;;;;;4.55;2.00;;;;;;;14.14;61.41;97946.52;1692672;84;21032;-86
2021/06/02 07:31:36;;;;;;;2.72;1.65;;;;;;;14.28;61.77;97945.04;1692877;82;20977;-82
2021/06/02 07:34:06;;;;;;;4.55;1.77;;;;;;;14.34;55.40;97944.75;1745600;81;21082;-87
2021/06/02 07:36:37;;;;;;;1.80;1.35;;;;;;;14.43;58.96;97937.66;1749238;82;21433;-87
2021/06/02 07:39:07;;;;;;;3.55;1.98;;;;;;;14.56;58.78;97947.28;1724248;82;21015;-83
2021/06/02 07:41:34;;;;;;;2.90;1.62;;;;;;;14.54;55.49;97946.51;1750807;81;20961;-85
2021/06/02 07:44:00;;;;;;;3.15;1.80;;;;;;;14.69;56.68;97949.39;1753861;82;21075;-84
2021/06/02 07:46:30;;;;;;;15.13;9.58;;;;;;;14.68;54.94;97946.30;1754082;82;21019;-88
2021/06/02 07:48:57;;;;;;;7.03;2.30;;;;;;;14.82;58.20;97944.37;1654933;82;21044;-86
2021/06/02 07:51:24;;;;;;;2.65;1.85;;;;;;;14.93;58.74;97945.16;1714518;82;21016;-86
2021/06/02 07:53:51;;;;;;;3.27;1.67;;;;;;;15.04;54.85;97945.04;1653801;81;21071;-82
2021/06/02 07:56:17;;;;;;;2.90;1.42;;;;;;;15.04;52.73;97936.19;1754047;81;21016;-82
2021/06/02 07:58:44;;;;;;;3.98;2.20;;;;;;;15.12;54.00;97942.00;1751595;82;21561;-81
2021/06/02 08:01:10;;;;;;;4.97;1.62;;;;;;;15.25;56.26;97933.39;1751614;82;21040;-80
2021/06/02 08:03:37;;;;;;;2.25;1.75;;;;;;;15.35;57.08;97948.02;1751379;82;21044;-87
2021/06/02 08:06:04;;;;;;;2.35;1.60;;;;;;;15.42;56.52;97945.44;1752385;82;21024;-86
2021/06/02 08:08:31;;;;;;;4.35;1.77;;;;;;;15.45;55.03;97947.09;1755053;81;21084;-85
2021/06/02 08:10:58;;;;;;;4.50;1.87;;;;;;;15.47;55.90;97947.88;1753179;81;21012;-86
2021/06/02 08:13:24;;;;;;;4.20;1.60;;;;;;;15.33;51.62;97949.91;1756295;82;21047;-87
2021/06/02 08:15:51;;;;;;;3.52;1.42;;;;;;;15.36;55.19;97956.90;1756638;82;21087;-87
2021/06/02 08:18:18;;;;;;;2.30;1.67;;;;;;;15.26;54.23;97945.34;1756519;82;21075;-88
2021/06/02 08:20:44;;;;;;;2.37;1.80;;;;;;;15.34;53.78;97944.95;1757176;82;21356;-88
2021/06/02 08:23:11;;;;;;;5.28;1.60;;;;;;;15.39;54.24;97942.91;1755497;81;21016;-87
2021/06/02 08:25:37;;;;;;;2.55;1.60;;;;;;;15.49;52.66;97946.46;1759985;81;21004;-88
2021/06/02 08:28:04;;;;;;;2.70;1.60;;;;;;;15.55;52.67;97942.14;1763832;81;20968;-86
2021/06/02 08:30:34;;;;;;;2.17;1.65;;;;;;;15.69;51.32;97951.65;1764970;81;21043;-85
2021/06/02 08:33:04;;;;;;;4.30;2.42;;;;;;;15.72;50.83;97943.94;1760167;81;21043;-83
2021/06/02 08:35:31;;;;;;;6.10;4.05;;;;;;;15.75;49.44;97954.95;1750759;82;21063;-83
2021/06/02 08:37:58;;;;;;;3.85;1.82;;;;;;;15.92;50.55;97949.60;1702653;82;21467;-83
2021/06/02 08:40:25;;;;;;;3.33;1.47;;;;;;;16.03;50.47;97961.57;1742748;82;21136;-82
2021/06/02 08:42:52;;;;;;;4.60;1.57;;;;;;;15.95;47.10;97957.47;1743648;82;20974;-83
2021/06/02 08:45:20;;;;;;;3.87;1.42;;;;;;;16.03;49.23;97957.06;1743939;82;21037;-87
2021/06/02 08:47:48;;;;;;;2.12;1.40;;;;;;;16.19;50.20;97957.13;1716719;82;20938;-85
2021/06/02 08:50:23;;;;;;;3.10;1.70;;;;;;;16.31;48.62;97954.27;1716562;82;21009;-84
2021/06/02 08:52:49;;;;;;;2.47;1.60;;;;;;;16.35;50.10;97958.52;1721343;82;21047;-89
2021/06/02 08:55:20;;;;;;;3.33;1.47;;;;;;;16.45;49.46;97950.84;1696172;82;21024;-87
2021/06/02 08:57:51;;;;;;;2.25;1.70;;;;;;;16.50;50.41;97947.93;1720684;82;21452;-84
2021/06/02 09:00:22;;;;;;;4.60;1.67;;;;;;;16.60;49.75;97957.17;1744398;82;21076;-84
2021/06/02 09:02:55;;;;;;;3.05;1.82;;;;;;;16.66;49.25;97953.31;1742754;82;20986;-87
2021/06/02 09:05:28;;;;;;;2.05;1.55;;;;;;;16.73;50.66;97949.82;1745728;82;21000;-86
2021/06/02 09:07:57;;;;;;;2.02;1.45;;;;;;;16.68;47.69;97946.05;1694842;82;20989;-88
2021/06/02 09:10:26;;;;;;;2.55;1.52;;;;;;;16.63;47.31;97951.67;1690894;82;21450;-84
2021/06/02 09:13:03;;;;;;;5.65;1.95;;;;;;;16.59;47.17;97957.25;1742388;82;20997;-84
2021/06/02 09:15:35;;;;;;;2.47;1.70;;;;;;;16.36;46.56;97946.02;1717817;82;21708;-83
2021/06/02 09:18:09;;;;;;;1.82;1.60;;;;;;;16.43;47.08;97944.72;1748121;82;21589;-85
2021/06/02 09:20:51;;;;;;;2.40;1.90;;;;;;;16.50;47.45;97943.42;1741964;82;21046;-83
2021/06/02 09:23:38;;;;;;;2.12;1.50;;;;;;;16.60;46.59;97945.59;1724270;82;21024;-83
2021/06/02 09:26:25;;;;;;;5.55;1.65;;;;;;;16.63;47.58;97944.10;1721206;82;21033;-87
2021/06/02 09:29:14;;;;;;;3.72;1.55;;;;;;;16.83;46.90;97946.14;1722258;82;20983;-86
2021/06/02 09:31:46;;;;;;;5.97;1.72;;;;;;;17.00;44.99;97934.48;1744542;82;21498;-84
2021/06/02 09:34:23;;;;;;;2.87;1.50;;;;;;;17.18;46.63;97943.30;1688313;83;21573;-85
2021/06/02 09:37:02;;;;;;;4.15;1.85;;;;;;;17.32;44.37;97933.61;1665121;83;21055;-85
2021/06/02 09:39:28;;;;;;;4.28;1.80;;;;;;;17.36;43.78;97936.00;1684272;83;21021;-88
2021/06/02 09:41:59;;;;;;;3.45;1.47;;;;;;;17.55;44.99;97930.45;1664831;83;21115;-86
2021/06/02 09:44:31;;;;;;;3.95;1.67;;;;;;;17.52;42.67;97931.95;1624082;84;20973;-87
2021/06/02 09:47:14;;;;;;;3.90;1.77;;;;;;;17.35;40.89;97931.61;1658120;83;21509;-86
2021/06/02 09:49:55;;;;;;;3.42;1.47;;;;;;;17.37;41.48;97934.20;1689741;83;20988;-80
2021/06/02 09:52:48;;;;;;;2.98;1.40;;;;;;;17.54;42.18;97929.19;1711166;83;21492;-84
2021/06/02 09:55:22;;;;;;;3.45;1.50;;;;;;;17.63;40.94;97934.01;1709025;83;21390;-84
2021/06/02 09:58:10;;;;;;;3.20;1.60;;;;;;;17.68;40.08;97929.70;1711590;83;21430;-81
2021/06/02 10:00:58;;;;;;;2.65;1.40;;;;;;;17.84;41.42;97927.43;1707228;83;22113;-80
2021/06/02 10:03:30;;;;;;;2.40;1.80;;;;;;;17.97;38.71;97924.39;1711269;83;20989;-80
2021/06/02 10:05:56;;;;;;;4.12;1.77;;;;;;;18.10;39.60;97924.53;1714734;83;21031;-80
2021/06/02 10:08:31;;;;;;;3.60;1.90;;;;;;;18.20;40.99;97926.18;1714464;84;21035;-85
2021/06/02 10:11:13;;;;;;;5.67;3.30;;;;;;;18.29;40.99;97933.66;1689272;83;20993;-87
2021/06/02 10:13:42;;;;;;;3.98;1.60;;;;;;;18.36;41.20;97922.53;1717022;83;21087;-85
2021/06/02 10:16:11;;;;;;;3.52;1.80;;;;;;;18.18;37.53;97923.59;1690163;83;20984;-84
2021/06/02 10:18:46;;;;;;;15.50;4.62;;;;;;;18.04;36.13;97937.83;1686278;83;21040;-88
2021/06/02 10:21:14;;;;;;;14.43;3.02;;;;;;;17.80;37.30;97926.77;1717830;83;20965;-86
2021/06/02 10:23:44;;;;;;;13.30;2.52;;;;;;;17.73;38.23;97931.62;1717144;83;20973;-86
2021/06/02 10:26:15;;;;;;;6.85;2.50;;;;;;;17.70;39.43;97936.31;1716481;83;21086;-87
2021/06/02 10:28:43;;;;;;;4.47;1.98;;;;;;;17.66;38.47;97927.59;1710142;83;21049;-85
2021/06/02 10:31:13;;;;;;;5.60;1.92;;;;;;;17.65;39.22;97930.74;1717081;83;20989;-90
2021/06/02 10:33:42;;;;;;;3.33;1.80;;;;;;;17.42;37.49;97929.44;1716414;83;20983;-87
2021/06/02 10:36:10;;;;;;;3.27;1.62;;;;;;;17.42;38.76;97930.78;1704310;82;20989;-88
2021/06/02 10:38:47;;;;;;;3.10;1.70;;;;;;;17.49;38.72;97940.66;1738375;82;21072;-87
2021/06/02 10:41:25;;;;;;;3.17;1.75;;;;;;;17.50;38.83;97929.86;1713534;82;21084;-87
2021/06/02 10:43:58;;;;;;;2.95;1.60;;;;;;;17.52;37.99;97934.63;1736620;82;20985;-84
2021/06/02 10:46:27;;;;;;;2.17;1.47;;;;;;;17.71;39.45;97932.20;1734883;82;21020;-86
2021/06/02 10:48:57;;;;;;;3.58;2.20;;;;;;;17.98;36.81;97940.86;1734494;82;21049;-84
2021/06/02 10:51:33;;;;;;;2.40;2.05;;;;;;;18.14;37.42;97935.95;1713903;82;20989;-83
2021/06/02 10:54:16;;;;;;;7.17;1.95;;;;;;;18.62;39.46;97926.25;1738957;82;20941;-85
2021/06/02 10:57:04;;;;;;;5.08;1.70;;;;;;;19.43;37.21;97920.20;1736049;82;21189;-84
2021/06/02 10:59:37;;;;;;;3.22;1.65;;;;;;;19.89;33.15;97929.14;1737277;82;21036;-83
2021/06/02 11:02:16;;;;;;;2.50;1.70;;;;;;;20.71;30.61;97926.59;1730947;82;21040;-85
2021/06/02 11:05:07;;;;;;;4.25;1.77;;;;;;;21.05;35.07;97921.09;1730505;82;21007;-85
2021/06/02 11:07:36;;;;;;;4.08;1.60;;;;;;;20.77;32.55;97918.57;1734609;82;21008;-86
2021/06/02 11:10:13;;;;;;;2.50;1.62;;;;;;;20.99;34.60;97922.88;1736797;82;20969;-85
2021/06/02 11:12:52;;;;;;;3.67;1.60;;;;;;;21.02;34.25;97933.44;1734742;82;20997;-86
2021/06/02 11:15:43;;;;;;;3.42;1.70;;;;;;;21.22;34.29;97930.63;1728646;82;20977;-83
2021/06/02 11:18:19;;;;;;;5.40;1.80;;;;;;;21.32;33.30;97945.60;1732976;82;21040;-85
2021/06/02 11:20:55;;;;;;;4.35;1.67;;;;;;;21.18;33.50;97938.05;1730853;82;21020;-84
2021/06/02 11:23:34;;;;;;;3.02;1.70;;;;;;;21.45;33.10;97941.02;1739435;82;21379;-84
2021/06/02 11:26:25;;;;;;;4.58;1.98;;;;;;;21.62;33.65;97934.82;1739548;82;21111;-84
2021/06/02 11:28:53;;;;;;;3.67;1.95;;;;;;;21.98;34.06;97941.59;1736505;82;20988;-86
2021/06/02 11:31:29;;;;;;;5.45;1.85;;;;;;;21.95;32.40;97944.51;1684938;82;21021;-85
2021/06/02 11:34:28;;;;;;;3.62;1.65;;;;;;;21.87;29.67;97939.23;1729050;82;21464;-86
2021/06/02 11:37:04;;;;;;;4.47;1.62;;;;;;;22.18;31.80;97935.98;1737218;82;21044;-86
2021/06/02 11:39:32;;;;;;;5.12;1.70;;;;;;;22.63;31.01;97942.42;1736005;82;21056;-85
2021/06/02 11:41:59;;;;;;;3.47;1.65;;;;;;;22.60;31.46;97936.78;1737898;82;21019;-86
2021/06/02 11:44:32;;;;;;;2.00;1.50;;;;;;;22.36;29.04;97939.07;1733897;82;21024;-87
2021/06/02 11:47:00;;;;;;;5.17;1.60;;;;;;;22.19;29.84;97939.53;1737651;82;21052;-90
2021/06/02 11:49:36;;;;;;;2.47;1.65;;;;;;;21.99;30.90;97940.59;1734016;82;20977;-90
2021/06/02 11:52:13;;;;;;;3.30;1.85;;;;;;;22.14;29.53;97942.61;1735850;81;21028;-90
2021/06/02 11:54:51;;;;;;;5.58;1.87;;;;;;;21.76;30.72;97934.66;1732481;82;20961;-88
2021/06/02 11:57:33;;;;;;;2.75;1.40;;;;;;;22.27;31.88;97933.92;1726561;82;21021;-86
2021/06/02 12:00:13;;;;;;;2.95;1.60;;;;;;;22.45;29.47;97942.03;1706228;82;21051;-89
2021/06/02 12:02:40;;;;;;;3.27;1.75;;;;;;;22.34;27.43;97942.36;1742097;82;21012;-86
2021/06/02 12:05:29;;;;;;;3.17;1.70;;;;;;;22.25;28.36;97945.81;1734019;82;21028;-85
2021/06/02 12:08:11;;;;;;;5.75;3.25;;;;;;;22.51;29.63;97940.18;1731477;82;21084;-88
2021/06/02 12:10:52;;;;;;;4.85;2.10;;;;;;;22.59;30.28;97940.95;1698619;82;21087;-86
2021/06/02 12:13:29;;;;;;;2.70;1.70;;;;;;;22.83;29.33;97942.14;1753946;82;21024;-90
2021/06/02 12:16:02;;;;;;;1.82;1.47;;;;;;;23.01;27.59;97945.21;1754427;82;21067;-86
2021/06/02 12:18:44;;;;;;;3.73;1.80;;;;;;;22.92;28.21;97937.86;1754382;82;21024;-89
2021/06/02 12:21:26;;;;;;;5.37;1.60;;;;;;;23.25;28.17;97941.44;1730974;82;21056;-85
2021/06/02 12:24:07;;;;;;;2.85;1.60;;;;;;;24.24;27.41;97944.48;1728194;82;20969;-74
2021/06/02 12:26:44;;;;;;;3.00;1.72;;;;;;;25.26;26.72;97941.02;1733546;82;20973;-87
2021/06/02 12:29:16;;;;;;;4.20;1.70;;;;;;;25.06;27.38;97945.05;1731698;82;21043;-88
2021/06/02 12:31:51;;;;;;;3.77;1.65;;;;;;;25.06;27.38;97945.05;1702260;84;21033;-87
2021/06/02 12:34:24;;;;;;;2.37;1.40;;;;;;;24.47;27.33;97947.03;1702281;84;21455;-89
2021/06/02 12:36:58;;;;;;;3.72;1.60;;;;;;;23.63;26.84;97951.92;1721024;83;21110;-90